createdAt,value
2017-07-29T00:01:59.701Z,16.70
2017-07-29T00:04:25.997Z,17.00
2017-07-29T00:06:52.890Z,16.40
2017-07-29T00:09:19.711Z,17.00
2017-07-29T00:11:47.000Z,17.10
2017-07-29T00:14:13.347Z,17.00
2017-07-29T00:16:40.687Z,17.10
2017-07-29T00:19:07.171Z,17.30
2017-07-29T00:21:40.649Z,17.40
2017-07-29T00:24:06.927Z,16.90
2017-07-29T00:26:33.986Z,17.50
2017-07-29T00:29:01.055Z,17.40
2017-07-29T00:31:27.345Z,17.40
2017-07-29T00:33:53.712Z,17.50
2017-07-29T00:36:19.976Z,17.40
2017-07-29T00:38:46.442Z,17.40
2017-07-29T00:41:12.738Z,17.40
2017-07-29T00:43:39.118Z,17.30
2017-07-29T00:46:05.409Z,17.30
2017-07-29T00:48:31.703Z,17.50
2017-07-29T00:50:58.005Z,17.30
2017-07-29T00:53:24.276Z,17.40
2017-07-29T00:55:50.545Z,17.50
2017-07-29T00:58:16.829Z,17.50
2017-07-29T01:00:43.096Z,17.50
2017-07-29T01:03:09.361Z,17.50
2017-07-29T01:05:35.643Z,17.60
2017-07-29T01:08:02.308Z,17.70
2017-07-29T01:10:28.609Z,17.70
2017-07-29T01:12:54.877Z,17.80
2017-07-29T01:15:21.917Z,17.80
2017-07-29T01:17:48.203Z,17.80
2017-07-29T01:20:14.519Z,17.80
2017-07-29T01:22:40.810Z,17.70
2017-07-29T01:25:07.128Z,17.70
2017-07-29T01:27:33.400Z,17.90
2017-07-29T01:29:59.674Z,17.80
2017-07-29T01:32:26.949Z,17.90
2017-07-29T01:34:53.469Z,17.80
2017-07-29T01:37:20.002Z,17.90
2017-07-29T01:39:46.562Z,18.00
2017-07-29T01:42:13.077Z,18.00
2017-07-29T01:44:39.690Z,17.50
2017-07-29T01:47:06.127Z,17.80
2017-07-29T01:49:32.690Z,18.10
2017-07-29T01:51:59.224Z,18.20
2017-07-29T01:54:25.813Z,18.20
2017-07-29T01:56:52.326Z,18.30
2017-07-29T01:59:18.870Z,18.30
2017-07-29T02:01:45.489Z,18.30
2017-07-29T02:04:12.044Z,18.30
2017-07-29T02:06:38.586Z,18.40
2017-07-29T02:09:05.084Z,18.40
2017-07-29T02:11:31.641Z,18.50
2017-07-29T02:13:58.170Z,18.60
2017-07-29T02:16:24.694Z,18.60
2017-07-29T02:18:51.199Z,18.60
2017-07-29T02:21:17.731Z,18.60
2017-07-29T02:23:44.373Z,18.80
2017-07-29T02:26:11.866Z,18.90
2017-07-29T02:28:38.386Z,18.80
2017-07-29T02:31:04.951Z,18.90
2017-07-29T02:33:31.468Z,18.90
2017-07-29T02:35:58.029Z,19.00
2017-07-29T02:38:24.527Z,18.90
2017-07-29T02:40:52.213Z,18.90
2017-07-29T02:43:18.715Z,18.80
2017-07-29T02:45:47.734Z,19.00
2017-07-29T02:48:14.115Z,19.00
2017-07-29T02:50:40.412Z,19.10
2017-07-29T02:53:06.887Z,19.00
2017-07-29T02:55:33.384Z,19.10
2017-07-29T02:57:59.889Z,19.10
2017-07-29T03:00:26.404Z,19.10
2017-07-29T03:02:52.857Z,19.10
2017-07-29T03:05:19.375Z,19.10
2017-07-29T03:07:45.866Z,19.10
2017-07-29T03:10:13.206Z,19.10
2017-07-29T03:12:40.407Z,19.20
2017-07-29T03:15:06.921Z,19.20
2017-07-29T03:17:33.427Z,19.20
2017-07-29T03:20:00.038Z,19.20
2017-07-29T03:22:26.611Z,19.20
2017-07-29T03:24:53.173Z,19.30
2017-07-29T03:27:20.424Z,19.20
2017-07-29T03:29:46.924Z,19.20
2017-07-29T03:32:13.419Z,19.20
2017-07-29T03:34:39.928Z,19.20
2017-07-29T03:37:06.462Z,19.20
2017-07-29T03:39:33.026Z,19.20
2017-07-29T03:41:59.533Z,19.30
2017-07-29T03:44:26.109Z,19.20
2017-07-29T03:46:52.632Z,19.30
2017-07-29T03:49:19.136Z,19.30
2017-07-29T03:51:45.699Z,19.50
2017-07-29T03:54:12.232Z,19.50
2017-07-29T03:56:38.846Z,19.40
2017-07-29T03:59:05.383Z,19.40
2017-07-29T04:01:31.919Z,19.30
2017-07-29T04:03:58.408Z,19.40
2017-07-29T04:06:25.712Z,19.40
2017-07-29T04:08:52.313Z,19.40
2017-07-29T04:11:18.853Z,19.50
2017-07-29T04:13:45.394Z,19.50
2017-07-29T04:16:11.962Z,19.50
2017-07-29T04:18:38.485Z,19.50
2017-07-29T04:23:38.019Z,19.60
2017-07-29T04:26:04.798Z,19.60
2017-07-29T04:28:31.080Z,19.60
2017-07-29T04:30:57.369Z,19.40
2017-07-29T04:33:23.638Z,19.20
2017-07-29T04:35:50.628Z,19.20
2017-07-29T04:38:16.889Z,19.30
2017-07-29T04:40:43.152Z,19.40
2017-07-29T04:43:09.408Z,19.40
2017-07-29T04:45:36.402Z,19.50
2017-07-29T04:48:02.670Z,19.50
2017-07-29T04:50:28.961Z,19.60
2017-07-29T04:52:55.251Z,19.60
2017-07-29T04:55:22.125Z,19.60
2017-07-29T04:57:48.402Z,19.60
2017-07-29T05:00:17.262Z,19.50
2017-07-29T05:02:43.614Z,19.50
2017-07-29T05:05:09.890Z,19.80
2017-07-29T05:07:36.138Z,19.80
2017-07-29T05:10:02.413Z,19.60
2017-07-29T05:12:28.679Z,19.60
2017-07-29T05:14:55.245Z,19.40
2017-07-29T05:17:22.529Z,19.40
2017-07-29T05:19:48.805Z,19.50
2017-07-29T05:22:16.073Z,19.70
2017-07-29T05:24:42.577Z,19.70
2017-07-29T05:27:10.795Z,20.10
2017-07-29T05:29:37.185Z,20.10
2017-07-29T05:32:03.502Z,20.10
2017-07-29T05:34:29.782Z,20.30
2017-07-29T05:36:56.896Z,20.30
2017-07-29T05:39:23.203Z,20.20
2017-07-29T05:41:50.541Z,20.10
2017-07-29T05:44:17.043Z,20.20
2017-07-29T05:46:43.594Z,20.10
2017-07-29T05:49:10.852Z,20.10
2017-07-29T05:51:38.092Z,20.10
2017-07-29T05:54:04.621Z,20.10
2017-07-29T05:56:31.826Z,20.10
2017-07-29T05:58:58.142Z,20.20
2017-07-29T06:01:24.654Z,20.20
2017-07-29T06:03:51.172Z,20.30
2017-07-29T06:06:17.955Z,20.30
2017-07-29T06:08:44.472Z,20.40
2017-07-29T06:11:10.986Z,20.50
2017-07-29T06:13:37.502Z,20.50
2017-07-29T06:16:04.735Z,20.60
2017-07-29T06:18:31.039Z,20.60
2017-07-29T06:20:57.318Z,20.60
2017-07-29T06:23:24.570Z,20.70
2017-07-29T06:25:51.038Z,20.70
2017-07-29T06:28:17.571Z,20.80
2017-07-29T06:30:44.101Z,20.90
2017-07-29T06:33:11.330Z,21.00
2017-07-29T06:35:37.789Z,21.00
2017-07-29T06:38:05.026Z,21.20
2017-07-29T06:40:31.381Z,21.10
2017-07-29T06:42:57.914Z,21.20
2017-07-29T06:45:24.464Z,21.00
2017-07-29T06:47:50.992Z,21.10
2017-07-29T06:50:18.201Z,21.20
2017-07-29T06:52:44.712Z,21.20
2017-07-29T06:55:11.165Z,21.30
2017-07-29T06:57:38.394Z,21.40
2017-07-29T07:00:04.675Z,21.40
2017-07-29T07:02:31.212Z,21.30
2017-07-29T07:04:57.793Z,21.20
2017-07-29T07:07:24.304Z,21.20
2017-07-29T07:09:50.869Z,21.10
2017-07-29T07:12:17.279Z,21.10
2017-07-29T07:14:43.775Z,21.10
2017-07-29T07:17:10.322Z,21.20
2017-07-29T07:19:37.863Z,21.10
2017-07-29T07:22:04.509Z,21.20
2017-07-29T07:24:31.766Z,21.20
2017-07-29T07:26:59.014Z,21.30
2017-07-29T07:29:25.269Z,21.20
2017-07-29T07:31:51.803Z,21.30
2017-07-29T07:34:19.125Z,21.40
2017-07-29T07:36:45.813Z,21.00
2017-07-29T07:39:13.133Z,21.20
2017-07-29T07:41:39.627Z,21.20
2017-07-29T07:44:06.103Z,21.20
2017-07-29T07:46:32.595Z,21.20
2017-07-29T07:48:59.206Z,21.20
2017-07-29T07:51:26.582Z,21.20
2017-07-29T07:53:52.882Z,21.20
2017-07-29T07:56:19.375Z,21.30
2017-07-29T07:58:46.953Z,21.30
2017-07-29T08:01:13.475Z,21.40
2017-07-29T08:03:40.109Z,21.40
2017-07-29T08:06:06.708Z,21.50
2017-07-29T08:08:33.198Z,21.50
2017-07-29T08:11:00.533Z,21.70
2017-07-29T08:13:27.174Z,21.70
2017-07-29T08:15:53.825Z,21.70
2017-07-29T08:18:20.435Z,21.70
2017-07-29T08:20:47.065Z,21.60
2017-07-29T08:23:13.641Z,21.70
2017-07-29T08:25:40.272Z,21.70
2017-07-29T08:28:08.857Z,21.70
2017-07-29T08:30:36.108Z,21.80
2017-07-29T08:33:02.659Z,21.80
2017-07-29T08:35:29.210Z,21.90
2017-07-29T08:37:56.147Z,22.00
2017-07-29T08:40:23.033Z,22.00
2017-07-29T08:42:49.515Z,22.00
2017-07-29T08:45:16.748Z,22.10
2017-07-29T08:47:43.249Z,22.10
2017-07-29T08:50:10.461Z,22.00
2017-07-29T08:52:36.984Z,22.10
2017-07-29T08:55:03.523Z,22.10
2017-07-29T08:57:30.091Z,22.30
2017-07-29T08:59:56.604Z,22.20
2017-07-29T09:02:23.651Z,22.30
2017-07-29T09:04:50.137Z,22.50
2017-07-29T09:07:16.639Z,22.60
2017-07-29T09:09:43.097Z,22.60
2017-07-29T09:12:09.585Z,22.50
2017-07-29T09:14:36.132Z,22.50
2017-07-29T09:17:02.627Z,22.50
2017-07-29T09:19:32.930Z,22.50
2017-07-29T09:22:00.633Z,22.60
2017-07-29T09:24:27.157Z,22.70
2017-07-29T09:26:53.638Z,22.80
2017-07-29T09:29:20.206Z,22.90
2017-07-29T09:31:46.834Z,23.00
2017-07-29T09:34:13.338Z,23.20
2017-07-29T09:36:39.881Z,23.40
2017-07-29T09:39:06.460Z,23.40
2017-07-29T09:41:32.922Z,23.60
2017-07-29T09:44:00.149Z,23.70
2017-07-29T09:46:26.649Z,23.20
2017-07-29T09:48:53.157Z,23.70
2017-07-29T09:51:19.658Z,23.60
2017-07-29T09:53:46.172Z,23.50
2017-07-29T09:56:12.734Z,23.50
2017-07-29T09:58:39.217Z,23.50
2017-07-29T10:01:05.798Z,23.50
2017-07-29T10:03:32.355Z,23.30
2017-07-29T10:05:58.825Z,23.20
2017-07-29T10:08:25.297Z,23.00
2017-07-29T10:10:51.837Z,22.90
2017-07-29T10:13:18.292Z,22.80
2017-07-29T10:15:45.542Z,22.70
2017-07-29T10:18:12.046Z,22.70
2017-07-29T10:20:38.562Z,22.70
2017-07-29T10:23:05.102Z,22.80
2017-07-29T10:25:32.330Z,22.80
2017-07-29T10:27:59.572Z,22.80
2017-07-29T10:30:26.058Z,22.80
2017-07-29T10:32:52.553Z,22.80
2017-07-29T10:35:19.065Z,23.00
2017-07-29T10:37:45.636Z,23.00
2017-07-29T10:40:12.136Z,23.20
2017-07-29T10:42:38.631Z,23.40
2017-07-29T10:45:05.149Z,23.50
2017-07-29T10:47:31.617Z,23.60
2017-07-29T10:49:58.872Z,23.90
2017-07-29T10:52:26.094Z,24.20
2017-07-29T10:54:52.564Z,24.20
2017-07-29T10:57:19.076Z,24.40
2017-07-29T10:59:45.558Z,24.50
2017-07-29T11:02:12.062Z,24.60
2017-07-29T11:04:38.852Z,24.60
2017-07-29T11:07:05.310Z,24.30
2017-07-29T11:09:31.785Z,24.40
2017-07-29T11:11:58.373Z,24.40
2017-07-29T11:14:24.841Z,24.30
2017-07-29T11:16:52.359Z,24.30
2017-07-29T11:19:18.834Z,24.30
2017-07-29T11:21:45.321Z,24.30
2017-07-29T11:24:11.840Z,24.20
2017-07-29T11:26:38.368Z,24.20
2017-07-29T11:29:04.921Z,24.40
2017-07-29T11:31:31.833Z,24.50
2017-07-29T11:33:59.045Z,24.70
2017-07-29T11:36:25.510Z,24.70
2017-07-29T11:38:51.996Z,24.70
2017-07-29T11:41:18.537Z,24.70
2017-07-29T11:43:45.051Z,24.80
2017-07-29T11:46:11.583Z,24.90
2017-07-29T11:48:38.850Z,24.70
2017-07-29T11:51:05.321Z,24.70
2017-07-29T11:53:31.824Z,24.80
2017-07-29T11:55:58.309Z,24.80
2017-07-29T11:58:24.820Z,24.90
2017-07-29T12:00:51.309Z,25.10
2017-07-29T12:03:17.795Z,25.30
2017-07-29T12:05:44.302Z,25.50
2017-07-29T12:08:10.837Z,25.80
2017-07-29T12:10:37.319Z,26.20
2017-07-29T12:13:03.834Z,26.50
2017-07-29T12:15:31.046Z,27.10
2017-07-29T12:17:57.551Z,27.10
2017-07-29T12:20:24.128Z,27.20
2017-07-29T12:22:50.701Z,27.50
2017-07-29T12:25:17.948Z,27.90
2017-07-29T12:27:44.451Z,27.90
2017-07-29T12:30:11.380Z,27.80
2017-07-29T12:32:37.864Z,27.40
2017-07-29T12:35:05.115Z,27.40
2017-07-29T12:37:31.651Z,27.40
2017-07-29T12:39:58.145Z,27.30
2017-07-29T12:42:24.669Z,27.40
2017-07-29T12:44:51.133Z,27.50
2017-07-29T12:47:17.715Z,27.60
2017-07-29T12:49:44.197Z,27.50
2017-07-29T12:52:11.073Z,27.30
2017-07-29T12:54:37.567Z,27.10
2017-07-29T12:57:04.340Z,27.00
2017-07-29T12:59:31.594Z,27.10
2017-07-29T13:01:58.150Z,27.00
2017-07-29T13:04:25.325Z,26.90
2017-07-29T13:06:52.570Z,27.20
2017-07-29T13:09:18.861Z,27.20
2017-07-29T13:11:45.440Z,27.50
2017-07-29T13:14:11.933Z,27.50
2017-07-29T13:16:38.423Z,27.30
2017-07-29T13:19:04.968Z,26.90
2017-07-29T13:21:35.390Z,26.50
2017-07-29T13:24:01.839Z,26.80
2017-07-29T13:26:28.131Z,26.70
2017-07-29T13:28:54.381Z,26.70
2017-07-29T13:31:20.616Z,27.00
2017-07-29T13:33:47.160Z,27.10
2017-07-29T13:36:13.531Z,27.20
2017-07-29T13:38:39.782Z,26.70
2017-07-29T13:41:06.197Z,26.90
2017-07-29T13:43:32.622Z,26.70
2017-07-29T13:45:59.276Z,26.60
2017-07-29T13:48:25.741Z,26.30
2017-07-29T13:50:52.790Z,26.20
2017-07-29T13:53:19.499Z,26.10
2017-07-29T13:55:46.133Z,25.90
2017-07-29T13:58:12.630Z,25.80
2017-07-29T14:00:39.096Z,25.70
2017-07-29T14:03:05.598Z,25.70
2017-07-29T14:05:32.069Z,25.60
2017-07-29T14:07:58.599Z,25.60
2017-07-29T14:10:25.089Z,25.60
2017-07-29T14:12:51.554Z,25.60
2017-07-29T14:15:18.014Z,25.60
2017-07-29T14:17:44.509Z,25.70
2017-07-29T14:20:11.750Z,25.80
2017-07-29T14:22:38.270Z,25.60
2017-07-29T14:25:04.734Z,25.90
2017-07-29T14:27:31.203Z,25.80
2017-07-29T14:29:57.705Z,25.80
2017-07-29T14:32:24.221Z,25.80
2017-07-29T14:34:50.717Z,25.60
2017-07-29T14:37:17.230Z,25.50
2017-07-29T14:39:43.713Z,25.50
2017-07-29T14:42:10.223Z,25.50
2017-07-29T14:44:37.462Z,25.50
2017-07-29T14:47:03.967Z,25.50
2017-07-29T14:49:30.455Z,25.50
2017-07-29T14:51:56.966Z,25.60
2017-07-29T14:54:23.396Z,25.60
2017-07-29T14:56:49.841Z,25.70
2017-07-29T14:59:16.353Z,25.80
2017-07-29T15:01:42.829Z,25.80
2017-07-29T15:04:10.148Z,26.00
2017-07-29T15:06:36.598Z,26.00
2017-07-29T15:09:03.178Z,26.10
2017-07-29T15:11:29.699Z,26.10
2017-07-29T15:13:56.233Z,26.00
2017-07-29T15:16:22.729Z,26.00
2017-07-29T15:18:49.218Z,25.70
2017-07-29T15:21:15.705Z,25.60
2017-07-29T15:23:42.163Z,25.60
2017-07-29T15:26:08.653Z,25.70
2017-07-29T15:28:35.102Z,25.70
2017-07-29T15:31:01.591Z,25.80
2017-07-29T15:33:28.065Z,25.90
2017-07-29T15:35:54.658Z,25.90
2017-07-29T15:38:21.153Z,25.90
2017-07-29T15:40:50.786Z,25.80
2017-07-29T15:43:18.038Z,25.80
2017-07-29T15:45:45.253Z,25.90
2017-07-29T15:48:11.797Z,25.90
2017-07-29T15:50:38.356Z,26.00
2017-07-29T15:53:04.940Z,25.90
2017-07-29T15:55:31.432Z,26.00
2017-07-29T15:57:58.707Z,26.10
2017-07-29T16:00:25.167Z,26.10
2017-07-29T16:02:51.772Z,26.10
2017-07-29T16:05:18.254Z,26.10
2017-07-29T16:07:45.078Z,26.00
2017-07-29T16:10:11.662Z,26.20
2017-07-29T16:12:38.205Z,26.20
2017-07-29T16:15:05.055Z,26.20
2017-07-29T16:17:31.710Z,26.20
2017-07-29T16:19:58.230Z,26.20
2017-07-29T16:22:24.779Z,26.20
2017-07-29T16:24:51.304Z,26.20
2017-07-29T16:27:17.833Z,26.30
2017-07-29T16:29:45.086Z,26.40
2017-07-29T16:32:11.590Z,26.40
2017-07-29T16:34:38.093Z,26.50
2017-07-29T16:37:04.632Z,26.60
2017-07-29T16:39:31.227Z,26.50
2017-07-29T16:41:58.551Z,26.50
2017-07-29T16:44:25.090Z,26.50
2017-07-29T16:46:51.699Z,26.60
2017-07-29T16:49:18.205Z,26.60
2017-07-29T16:51:44.748Z,26.60
2017-07-29T16:54:11.242Z,26.50
2017-07-29T16:56:37.733Z,26.50
2017-07-29T16:59:04.221Z,26.40
2017-07-29T17:01:30.950Z,26.40
2017-07-29T17:03:57.627Z,26.30
2017-07-29T17:06:24.219Z,26.30
2017-07-29T17:08:50.794Z,26.40
2017-07-29T17:11:17.338Z,26.40
2017-07-29T17:13:44.553Z,26.60
2017-07-29T17:16:11.083Z,26.60
2017-07-29T17:18:37.574Z,26.60
2017-07-29T17:21:04.212Z,26.40
2017-07-29T17:23:30.714Z,26.50
2017-07-29T17:25:57.238Z,26.40
2017-07-29T17:28:23.734Z,26.40
2017-07-29T17:30:50.268Z,26.40
2017-07-29T17:33:16.750Z,26.50
2017-07-29T17:35:43.944Z,26.40
2017-07-29T17:38:10.417Z,26.40
2017-07-29T17:40:36.896Z,26.50
2017-07-29T17:43:03.402Z,26.40
2017-07-29T17:45:30.642Z,26.30
2017-07-29T17:47:57.914Z,26.30
2017-07-29T17:50:24.434Z,26.30
2017-07-29T17:52:50.963Z,26.40
2017-07-29T17:55:17.510Z,26.30
2017-07-29T17:57:44.292Z,26.30
2017-07-29T18:00:11.636Z,26.40
2017-07-29T18:02:44.164Z,26.40
2017-07-29T18:05:10.718Z,26.20
2017-07-29T18:07:37.341Z,26.00
2017-07-29T18:10:03.829Z,26.20
2017-07-29T18:12:30.413Z,26.10
2017-07-29T18:14:56.905Z,26.20
2017-07-29T18:17:26.963Z,26.20
2017-07-29T18:19:53.621Z,26.10
2017-07-29T18:22:20.931Z,25.80
2017-07-29T18:24:48.182Z,26.00
2017-07-29T18:27:14.695Z,25.90
2017-07-29T18:29:46.048Z,26.00
2017-07-29T18:32:12.349Z,25.90
2017-07-29T18:34:39.406Z,25.60
2017-07-29T18:37:18.039Z,25.60
2017-07-29T18:39:46.324Z,25.40
2017-07-29T18:42:12.670Z,25.20
2017-07-29T18:44:39.710Z,25.50
2017-07-29T18:47:07.213Z,25.60
2017-07-29T18:49:34.473Z,25.30
2017-07-29T18:52:01.599Z,25.40
2017-07-29T18:54:28.974Z,25.40
2017-07-29T18:56:55.266Z,25.20
2017-07-29T18:59:21.634Z,25.30
2017-07-29T19:01:48.070Z,25.40
2017-07-29T19:04:14.361Z,25.30
2017-07-29T19:06:40.781Z,25.30
2017-07-29T19:09:07.117Z,24.90
2017-07-29T19:11:33.441Z,25.30
2017-07-29T19:13:59.810Z,25.20
2017-07-29T19:16:26.287Z,25.20
2017-07-29T19:18:52.663Z,25.10
2017-07-29T19:21:18.960Z,25.10
2017-07-29T19:23:45.317Z,25.00
2017-07-29T19:26:12.325Z,24.80
2017-07-29T19:28:38.600Z,24.70
2017-07-29T19:31:05.118Z,24.80
2017-07-29T19:33:31.420Z,24.20
2017-07-29T19:35:57.868Z,24.00
2017-07-29T19:38:24.280Z,24.00
2017-07-29T19:40:50.763Z,24.20
2017-07-29T19:43:17.778Z,24.00
2017-07-29T19:45:44.521Z,24.00
2017-07-29T19:48:11.729Z,24.00
2017-07-29T19:50:38.029Z,24.00
2017-07-29T19:53:04.274Z,24.10
2017-07-29T19:55:30.556Z,24.20
2017-07-29T19:57:56.943Z,24.20
2017-07-29T20:00:23.212Z,24.20
2017-07-29T20:02:49.473Z,24.20
2017-07-29T20:05:15.768Z,24.20
2017-07-29T20:07:42.115Z,24.20
2017-07-29T20:10:08.459Z,23.80
2017-07-29T20:12:34.697Z,24.20
2017-07-29T20:15:01.065Z,24.10
2017-07-29T20:17:27.337Z,23.90
2017-07-29T20:19:53.646Z,23.90
2017-07-29T20:22:20.962Z,24.00
2017-07-29T20:24:48.670Z,24.10
2017-07-29T20:27:15.030Z,23.90
2017-07-29T20:29:41.351Z,24.10
2017-07-29T20:32:07.970Z,24.10
2017-07-29T20:34:34.551Z,24.00
2017-07-29T20:37:00.985Z,23.80
2017-07-29T20:39:27.345Z,23.90
2017-07-29T20:41:54.439Z,24.10
2017-07-29T20:44:20.811Z,24.10
2017-07-29T20:46:47.134Z,24.30
2017-07-29T20:49:13.731Z,24.20
2017-07-29T20:51:40.018Z,24.30
2017-07-29T20:54:06.330Z,24.50
2017-07-29T20:56:32.662Z,24.60
2017-07-29T20:58:59.066Z,24.60
2017-07-29T21:01:25.475Z,24.50
2017-07-29T21:03:51.778Z,24.60
2017-07-29T21:06:18.120Z,24.60
2017-07-29T21:08:44.401Z,24.60
2017-07-29T21:11:10.713Z,24.70
2017-07-29T21:13:36.981Z,24.60
2017-07-29T21:16:03.281Z,24.70
2017-07-29T21:18:29.573Z,24.70
2017-07-29T21:20:55.845Z,24.50
2017-07-29T21:23:22.097Z,24.50
2017-07-29T21:25:48.385Z,24.70
2017-07-29T21:28:14.656Z,24.60
2017-07-29T21:30:40.985Z,24.40
2017-07-29T21:33:07.266Z,24.50
2017-07-29T21:35:33.580Z,24.40
2017-07-29T21:37:59.975Z,24.40
2017-07-29T21:40:26.807Z,24.40
2017-07-29T21:42:53.086Z,24.50
2017-07-29T21:45:20.082Z,24.60
2017-07-29T21:47:47.196Z,24.70
2017-07-29T21:50:13.575Z,24.70
2017-07-29T21:52:39.844Z,24.70
2017-07-29T21:55:06.175Z,24.80
2017-07-29T21:57:33.189Z,25.00
2017-07-29T21:59:59.440Z,25.00
2017-07-29T22:02:25.796Z,24.90
2017-07-29T22:04:52.041Z,25.00
2017-07-29T22:07:18.320Z,25.00
2017-07-29T22:09:44.686Z,25.00
2017-07-29T22:12:11.669Z,25.00
2017-07-29T22:14:37.932Z,24.90
2017-07-29T22:17:04.190Z,24.90
2017-07-29T22:19:30.452Z,24.90
2017-07-29T22:21:57.515Z,25.00
2017-07-29T22:24:23.869Z,25.00
2017-07-29T22:26:50.172Z,25.20
2017-07-29T22:29:18.565Z,25.10
2017-07-29T22:31:44.934Z,25.10
2017-07-29T22:34:11.232Z,25.00
2017-07-29T22:36:37.495Z,24.90
2017-07-29T22:39:03.820Z,24.60
2017-07-29T22:41:30.120Z,24.50
2017-07-29T22:43:56.406Z,24.40
2017-07-29T22:46:22.654Z,24.20
2017-07-29T22:48:48.989Z,24.20
2017-07-29T22:51:16.224Z,24.30
2017-07-29T22:53:42.595Z,24.30
2017-07-29T22:56:08.859Z,24.20
2017-07-29T22:58:36.092Z,24.10
2017-07-29T23:01:02.475Z,24.10
2017-07-29T23:03:28.854Z,24.10
2017-07-29T23:05:55.354Z,24.00
2017-07-29T23:08:21.821Z,24.00
2017-07-29T23:10:48.446Z,24.10
2017-07-29T23:13:14.992Z,24.10
2017-07-29T23:15:41.508Z,24.00
2017-07-29T23:18:08.054Z,23.80
2017-07-29T23:20:34.529Z,23.70
2017-07-29T23:23:01.066Z,23.90
2017-07-29T23:25:27.558Z,23.80
2017-07-29T23:27:54.045Z,23.90
2017-07-29T23:30:20.672Z,23.80
2017-07-29T23:32:47.181Z,23.80
2017-07-29T23:35:13.723Z,23.90
2017-07-29T23:37:40.589Z,23.90
2017-07-29T23:40:07.100Z,24.00
2017-07-29T23:42:33.573Z,24.10
2017-07-29T23:45:00.073Z,24.00
2017-07-29T23:47:26.537Z,23.70
2017-07-29T23:49:53.014Z,23.80
2017-07-29T23:52:20.233Z,23.90
2017-07-29T23:54:46.741Z,23.90
2017-07-29T23:57:13.973Z,23.80
2017-07-29T23:59:40.449Z,23.70
